sensor_id;sensor_type;location;lat;lon;timestamp;P1;durP1;ratioP1;P2;durP2;ratioP2
479;SDS011;226;48.606;9.096;2023-06-04T00:01:28;13.57;;;7.50;;
479;SDS011;226;48.606;9.096;2023-06-04T00:03:57;14.13;;;6.80;;
479;SDS011;226;48.606;9.096;2023-06-04T00:06:27;12.40;;;6.50;;
479;SDS011;226;48.606;9.096;2023-06-04T00:08:55;9.93;;;6.33;;
479;SDS011;226;48.606;9.096;2023-06-04T00:11:23;10.80;;;6.73;;
479;SDS011;226;48.606;9.096;2023-06-04T00:13:53;15.57;;;6.70;;
479;SDS011;226;48.606;9.096;2023-06-04T00:16:21;12.50;;;6.70;;
479;SDS011;226;48.606;9.096;2023-06-04T00:18:49;11.13;;;5.90;;
479;SDS011;226;48.606;9.096;2023-06-04T00:21:18;15.67;;;7.60;;
479;SDS011;226;48.606;9.096;2023-06-04T00:23:47;12.57;;;7.40;;
479;SDS011;226;48.606;9.096;2023-06-04T00:26:16;14.97;;;7.47;;
479;SDS011;226;48.606;9.096;2023-06-04T00:28:44;16.83;;;6.97;;
479;SDS011;226;48.606;9.096;2023-06-04T00:31:13;10.30;;;6.20;;
479;SDS011;226;48.606;9.096;2023-06-04T00:33:42;16.47;;;6.70;;
479;SDS011;226;48.606;9.096;2023-06-04T00:36:10;10.40;;;5.93;;
479;SDS011;226;48.606;9.096;2023-06-04T00:38:39;14.57;;;7.17;;
479;SDS011;226;48.606;9.096;2023-06-04T00:41:08;12.50;;;7.10;;
479;SDS011;226;48.606;9.096;2023-06-04T00:43:37;14.20;;;6.20;;
479;SDS011;226;48.606;9.096;2023-06-04T00:46:05;12.17;;;6.30;;
479;SDS011;226;48.606;9.096;2023-06-04T00:48:34;16.67;;;7.53;;
479;SDS011;226;48.606;9.096;2023-06-04T00:51:03;11.73;;;6.00;;
479;SDS011;226;48.606;9.096;2023-06-04T00:53:32;8.97;;;6.47;;
479;SDS011;226;48.606;9.096;2023-06-04T00:56:00;14.37;;;7.60;;
479;SDS011;226;48.606;9.096;2023-06-04T00:58:34;14.27;;;6.27;;
479;SDS011;226;48.606;9.096;2023-06-04T01:01:07;11.30;;;6.17;;
479;SDS011;226;48.606;9.096;2023-06-04T01:03:36;11.23;;;6.53;;
479;SDS011;226;48.606;9.096;2023-06-04T01:06:09;16.50;;;6.53;;
479;SDS011;226;48.606;9.096;2023-06-04T01:08:40;15.07;;;7.70;;
479;SDS011;226;48.606;9.096;2023-06-04T01:11:09;15.23;;;7.20;;
479;SDS011;226;48.606;9.096;2023-06-04T01:13:39;13.67;;;7.13;;
479;SDS011;226;48.606;9.096;2023-06-04T01:16:07;11.53;;;6.43;;
479;SDS011;226;48.606;9.096;2023-06-04T01:18:37;10.47;;;6.67;;
479;SDS011;226;48.606;9.096;2023-06-04T01:21:06;11.10;;;6.17;;
479;SDS011;226;48.606;9.096;2023-06-04T01:23:37;11.50;;;6.90;;
479;SDS011;226;48.606;9.096;2023-06-04T01:26:09;14.47;;;7.60;;
479;SDS011;226;48.606;9.096;2023-06-04T01:28:39;10.50;;;6.80;;
479;SDS011;226;48.606;9.096;2023-06-04T01:31:08;10.73;;;5.90;;
479;SDS011;226;48.606;9.096;2023-06-04T01:33:37;16.97;;;7.20;;
479;SDS011;226;48.606;9.096;2023-06-04T01:36:06;16.93;;;8.03;;
479;SDS011;226;48.606;9.096;2023-06-04T01:38:36;13.97;;;6.60;;
479;SDS011;226;48.606;9.096;2023-06-04T01:41:05;11.73;;;7.67;;
479;SDS011;226;48.606;9.096;2023-06-04T01:43:33;14.40;;;7.80;;
479;SDS011;226;48.606;9.096;2023-06-04T01:46:03;14.50;;;6.70;;
479;SDS011;226;48.606;9.096;2023-06-04T01:48:32;11.33;;;6.33;;
479;SDS011;226;48.606;9.096;2023-06-04T01:51:00;10.87;;;6.30;;
479;SDS011;226;48.606;9.096;2023-06-04T01:53:29;22.43;;;8.40;;
479;SDS011;226;48.606;9.096;2023-06-04T01:55:58;22.40;;;8.00;;
479;SDS011;226;48.606;9.096;2023-06-04T01:58:27;12.00;;;7.20;;
479;SDS011;226;48.606;9.096;2023-06-04T02:00:58;16.33;;;6.77;;
479;SDS011;226;48.606;9.096;2023-06-04T02:03:31;12.63;;;7.47;;
479;SDS011;226;48.606;9.096;2023-06-04T02:06:03;12.90;;;7.47;;
479;SDS011;226;48.606;9.096;2023-06-04T02:08:33;10.57;;;6.70;;
479;SDS011;226;48.606;9.096;2023-06-04T02:11:02;12.63;;;7.07;;
479;SDS011;226;48.606;9.096;2023-06-04T02:13:31;16.93;;;7.80;;
479;SDS011;226;48.606;9.096;2023-06-04T02:15:59;13.33;;;7.73;;
479;SDS011;226;48.606;9.096;2023-06-04T02:18:27;9.33;;;6.67;;
479;SDS011;226;48.606;9.096;2023-06-04T02:20:57;12.00;;;7.07;;
479;SDS011;226;48.606;9.096;2023-06-04T02:23:26;15.23;;;7.03;;
479;SDS011;226;48.606;9.096;2023-06-04T02:25:54;12.67;;;6.97;;
479;SDS011;226;48.606;9.096;2023-06-04T02:28:23;15.67;;;6.90;;
479;SDS011;226;48.606;9.096;2023-06-04T02:30:51;15.47;;;8.27;;
479;SDS011;226;48.606;9.096;2023-06-04T02:33:20;10.13;;;6.37;;
479;SDS011;226;48.606;9.096;2023-06-04T02:35:48;12.07;;;6.20;;
479;SDS011;226;48.606;9.096;2023-06-04T02:38:18;11.83;;;7.40;;
479;SDS011;226;48.606;9.096;2023-06-04T02:40:47;9.77;;;6.33;;
479;SDS011;226;48.606;9.096;2023-06-04T02:43:15;11.47;;;7.20;;
479;SDS011;226;48.606;9.096;2023-06-04T02:45:43;10.87;;;6.10;;
479;SDS011;226;48.606;9.096;2023-06-04T02:48:12;10.30;;;6.57;;
479;SDS011;226;48.606;9.096;2023-06-04T02:50:40;17.73;;;7.77;;
479;SDS011;226;48.606;9.096;2023-06-04T02:53:09;15.20;;;8.20;;
479;SDS011;226;48.606;9.096;2023-06-04T02:55:39;13.60;;;6.90;;
479;SDS011;226;48.606;9.096;2023-06-04T02:58:08;15.03;;;7.00;;
479;SDS011;226;48.606;9.096;2023-06-04T03:00:37;10.47;;;6.20;;
479;SDS011;226;48.606;9.096;2023-06-04T03:03:06;9.70;;;6.33;;
479;SDS011;226;48.606;9.096;2023-06-04T03:05:35;13.40;;;7.40;;
479;SDS011;226;48.606;9.096;2023-06-04T03:08:05;15.93;;;7.17;;
479;SDS011;226;48.606;9.096;2023-06-04T03:10:34;13.67;;;7.23;;
479;SDS011;226;48.606;9.096;2023-06-04T03:13:04;13.03;;;7.00;;
479;SDS011;226;48.606;9.096;2023-06-04T03:15:32;12.40;;;7.50;;
479;SDS011;226;48.606;9.096;2023-06-04T03:18:05;13.53;;;7.20;;
479;SDS011;226;48.606;9.096;2023-06-04T03:20:34;20.93;;;8.23;;
479;SDS011;226;48.606;9.096;2023-06-04T03:23:04;10.13;;;7.50;;
479;SDS011;226;48.606;9.096;2023-06-04T03:25:33;13.70;;;6.10;;
479;SDS011;226;48.606;9.096;2023-06-04T03:28:01;18.60;;;8.00;;
479;SDS011;226;48.606;9.096;2023-06-04T03:30:31;13.83;;;7.30;;
479;SDS011;226;48.606;9.096;2023-06-04T03:32:59;12.07;;;8.37;;
479;SDS011;226;48.606;9.096;2023-06-04T03:35:28;22.13;;;7.90;;
479;SDS011;226;48.606;9.096;2023-06-04T03:37:57;6.73;;;5.43;;
479;SDS011;226;48.606;9.096;2023-06-04T03:40:25;9.43;;;5.70;;
479;SDS011;226;48.606;9.096;2023-06-04T03:42:53;14.53;;;7.50;;
479;SDS011;226;48.606;9.096;2023-06-04T03:45:22;15.10;;;6.43;;
479;SDS011;226;48.606;9.096;2023-06-04T03:47:51;10.70;;;6.97;;
479;SDS011;226;48.606;9.096;2023-06-04T03:50:20;16.10;;;8.03;;
479;SDS011;226;48.606;9.096;2023-06-04T03:52:48;16.03;;;7.30;;
479;SDS011;226;48.606;9.096;2023-06-04T03:55:17;13.70;;;5.83;;
479;SDS011;226;48.606;9.096;2023-06-04T03:57:45;13.43;;;5.87;;
479;SDS011;226;48.606;9.096;2023-06-04T04:00:14;11.53;;;6.27;;
479;SDS011;226;48.606;9.096;2023-06-04T04:02:43;19.73;;;6.93;;
479;SDS011;226;48.606;9.096;2023-06-04T04:05:12;13.77;;;7.80;;
479;SDS011;226;48.606;9.096;2023-06-04T04:07:42;12.63;;;7.50;;
479;SDS011;226;48.606;9.096;2023-06-04T04:10:11;12.40;;;7.10;;
479;SDS011;226;48.606;9.096;2023-06-04T04:12:39;15.93;;;7.80;;
479;SDS011;226;48.606;9.096;2023-06-04T04:15:08;16.83;;;8.77;;
479;SDS011;226;48.606;9.096;2023-06-04T04:17:36;16.53;;;6.33;;
479;SDS011;226;48.606;9.096;2023-06-04T04:20:05;12.77;;;7.00;;
479;SDS011;226;48.606;9.096;2023-06-04T04:22:35;12.53;;;6.57;;
479;SDS011;226;48.606;9.096;2023-06-04T04:25:08;11.60;;;7.10;;
479;SDS011;226;48.606;9.096;2023-06-04T04:27:36;21.10;;;7.73;;
479;SDS011;226;48.606;9.096;2023-06-04T04:30:07;8.63;;;6.27;;
479;SDS011;226;48.606;9.096;2023-06-04T04:32:35;12.43;;;7.57;;
479;SDS011;226;48.606;9.096;2023-06-04T04:35:05;11.63;;;6.10;;
479;SDS011;226;48.606;9.096;2023-06-04T04:37:35;21.27;;;8.13;;
479;SDS011;226;48.606;9.096;2023-06-04T04:40:06;16.37;;;7.93;;
479;SDS011;226;48.606;9.096;2023-06-04T04:42:36;11.87;;;7.37;;
479;SDS011;226;48.606;9.096;2023-06-04T04:45:05;11.10;;;7.63;;
479;SDS011;226;48.606;9.096;2023-06-04T04:47:34;12.40;;;7.30;;
479;SDS011;226;48.606;9.096;2023-06-04T04:50:03;10.60;;;6.43;;
479;SDS011;226;48.606;9.096;2023-06-04T04:52:31;13.37;;;7.33;;
479;SDS011;226;48.606;9.096;2023-06-04T04:55:01;13.07;;;7.40;;
479;SDS011;226;48.606;9.096;2023-06-04T04:57:30;11.10;;;6.23;;
479;SDS011;226;48.606;9.096;2023-06-04T04:59:58;12.63;;;6.60;;
479;SDS011;226;48.606;9.096;2023-06-04T05:05:01;10.83;;;6.47;;
479;SDS011;226;48.606;9.096;2023-06-04T05:07:29;11.57;;;7.67;;
479;SDS011;226;48.606;9.096;2023-06-04T05:09:57;15.03;;;6.50;;
479;SDS011;226;48.606;9.096;2023-06-04T05:12:29;12.50;;;6.50;;
479;SDS011;226;48.606;9.096;2023-06-04T05:14:58;10.23;;;6.40;;
479;SDS011;226;48.606;9.096;2023-06-04T05:17:27;13.00;;;7.20;;
479;SDS011;226;48.606;9.096;2023-06-04T05:19:57;14.00;;;7.20;;
479;SDS011;226;48.606;9.096;2023-06-04T05:22:38;15.73;;;6.00;;
479;SDS011;226;48.606;9.096;2023-06-04T05:25:06;10.67;;;6.23;;
479;SDS011;226;48.606;9.096;2023-06-04T05:27:37;15.43;;;6.70;;
479;SDS011;226;48.606;9.096;2023-06-04T05:30:06;8.97;;;6.10;;
479;SDS011;226;48.606;9.096;2023-06-04T05:32:34;9.70;;;5.50;;
479;SDS011;226;48.606;9.096;2023-06-04T05:35:08;11.67;;;7.03;;
479;SDS011;226;48.606;9.096;2023-06-04T05:37:37;12.10;;;6.63;;
479;SDS011;226;48.606;9.096;2023-06-04T05:40:07;9.20;;;5.43;;
479;SDS011;226;48.606;9.096;2023-06-04T05:42:38;10.90;;;5.90;;
479;SDS011;226;48.606;9.096;2023-06-04T05:45:07;13.23;;;6.63;;
479;SDS011;226;48.606;9.096;2023-06-04T05:47:36;14.20;;;6.27;;
479;SDS011;226;48.606;9.096;2023-06-04T05:50:04;8.00;;;4.97;;
479;SDS011;226;48.606;9.096;2023-06-04T05:52:33;6.93;;;4.70;;
479;SDS011;226;48.606;9.096;2023-06-04T05:55:03;6.67;;;4.63;;
479;SDS011;226;48.606;9.096;2023-06-04T05:57:34;5.53;;;4.50;;
479;SDS011;226;48.606;9.096;2023-06-04T06:00:04;8.73;;;4.10;;
479;SDS011;226;48.606;9.096;2023-06-04T06:02:37;5.30;;;3.83;;
479;SDS011;226;48.606;9.096;2023-06-04T06:05:05;8.77;;;4.40;;
479;SDS011;226;48.606;9.096;2023-06-04T06:07:34;5.10;;;3.57;;
479;SDS011;226;48.606;9.096;2023-06-04T06:10:03;5.10;;;3.17;;
479;SDS011;226;48.606;9.096;2023-06-04T06:12:32;16.80;;;3.40;;
479;SDS011;226;48.606;9.096;2023-06-04T06:15:00;5.43;;;3.00;;
479;SDS011;226;48.606;9.096;2023-06-04T06:17:30;3.17;;;2.97;;
479;SDS011;226;48.606;9.096;2023-06-04T06:19:59;3.53;;;2.57;;
479;SDS011;226;48.606;9.096;2023-06-04T06:22:28;4.37;;;2.97;;
479;SDS011;226;48.606;9.096;2023-06-04T06:24:56;5.00;;;2.80;;
479;SDS011;226;48.606;9.096;2023-06-04T06:27:25;7.90;;;3.40;;
479;SDS011;226;48.606;9.096;2023-06-04T06:29:53;5.33;;;3.30;;
479;SDS011;226;48.606;9.096;2023-06-04T06:32:21;7.50;;;3.40;;
479;SDS011;226;48.606;9.096;2023-06-04T06:34:51;3.60;;;2.97;;
479;SDS011;226;48.606;9.096;2023-06-04T06:37:19;3.27;;;2.50;;
479;SDS011;226;48.606;9.096;2023-06-04T06:39:47;4.40;;;3.30;;
479;SDS011;226;48.606;9.096;2023-06-04T06:42:15;11.27;;;4.10;;
479;SDS011;226;48.606;9.096;2023-06-04T06:44:44;11.97;;;3.20;;
479;SDS011;226;48.606;9.096;2023-06-04T06:47:13;3.43;;;3.13;;
479;SDS011;226;48.606;9.096;2023-06-04T06:49:41;3.20;;;2.90;;
479;SDS011;226;48.606;9.096;2023-06-04T06:52:11;6.67;;;2.50;;
479;SDS011;226;48.606;9.096;2023-06-04T06:54:39;4.90;;;2.87;;
479;SDS011;226;48.606;9.096;2023-06-04T06:57:07;3.70;;;2.87;;
479;SDS011;226;48.606;9.096;2023-06-04T06:59:36;10.73;;;3.33;;
479;SDS011;226;48.606;9.096;2023-06-04T07:02:04;5.03;;;3.40;;
479;SDS011;226;48.606;9.096;2023-06-04T07:04:33;4.00;;;2.60;;
479;SDS011;226;48.606;9.096;2023-06-04T07:07:01;7.17;;;2.87;;
479;SDS011;226;48.606;9.096;2023-06-04T07:09:31;2.37;;;2.13;;
479;SDS011;226;48.606;9.096;2023-06-04T07:11:59;3.73;;;2.57;;
479;SDS011;226;48.606;9.096;2023-06-04T07:14:27;2.97;;;2.77;;
479;SDS011;226;48.606;9.096;2023-06-04T07:16:55;5.73;;;2.63;;
479;SDS011;226;48.606;9.096;2023-06-04T07:19:24;5.17;;;2.87;;
479;SDS011;226;48.606;9.096;2023-06-04T07:21:53;6.90;;;3.00;;
479;SDS011;226;48.606;9.096;2023-06-04T07:24:22;4.10;;;2.40;;
479;SDS011;226;48.606;9.096;2023-06-04T07:26:52;3.80;;;2.67;;
479;SDS011;226;48.606;9.096;2023-06-04T07:29:20;3.83;;;2.60;;
479;SDS011;226;48.606;9.096;2023-06-04T07:31:49;3.17;;;2.33;;
479;SDS011;226;48.606;9.096;2023-06-04T07:34:17;4.13;;;3.17;;
479;SDS011;226;48.606;9.096;2023-06-04T07:36:45;5.50;;;3.07;;
479;SDS011;226;48.606;9.096;2023-06-04T07:39:13;2.40;;;2.20;;
479;SDS011;226;48.606;9.096;2023-06-04T07:41:41;3.50;;;2.47;;
479;SDS011;226;48.606;9.096;2023-06-04T07:44:11;4.97;;;2.43;;
479;SDS011;226;48.606;9.096;2023-06-04T07:46:39;3.33;;;2.40;;
479;SDS011;226;48.606;9.096;2023-06-04T07:49:07;3.90;;;2.47;;
479;SDS011;226;48.606;9.096;2023-06-04T07:51:36;2.50;;;2.23;;
479;SDS011;226;48.606;9.096;2023-06-04T07:54:04;4.47;;;2.60;;
479;SDS011;226;48.606;9.096;2023-06-04T07:56:33;2.40;;;2.20;;
479;SDS011;226;48.606;9.096;2023-06-04T07:59:01;9.10;;;3.07;;
479;SDS011;226;48.606;9.096;2023-06-04T08:01:31;4.37;;;2.60;;
479;SDS011;226;48.606;9.096;2023-06-04T08:03:59;2.93;;;2.60;;
479;SDS011;226;48.606;9.096;2023-06-04T08:06:27;4.57;;;2.90;;
479;SDS011;226;48.606;9.096;2023-06-04T08:08:55;3.40;;;2.67;;
479;SDS011;226;48.606;9.096;2023-06-04T08:11:24;2.93;;;2.40;;
479;SDS011;226;48.606;9.096;2023-06-04T08:13:52;4.60;;;3.00;;
479;SDS011;226;48.606;9.096;2023-06-04T08:16:20;3.43;;;2.77;;
479;SDS011;226;48.606;9.096;2023-06-04T08:18:50;3.67;;;2.30;;
479;SDS011;226;48.606;9.096;2023-06-04T08:21:24;3.55;;;2.40;;
479;SDS011;226;48.606;9.096;2023-06-04T08:23:53;8.70;;;5.27;;
479;SDS011;226;48.606;9.096;2023-06-04T08:26:22;4.07;;;2.50;;
479;SDS011;226;48.606;9.096;2023-06-04T08:28:51;5.23;;;3.40;;
479;SDS011;226;48.606;9.096;2023-06-04T08:31:19;3.03;;;2.80;;
479;SDS011;226;48.606;9.096;2023-06-04T08:33:47;5.37;;;3.53;;
479;SDS011;226;48.606;9.096;2023-06-04T08:36:17;4.50;;;2.03;;
479;SDS011;226;48.606;9.096;2023-06-04T08:38:45;2.63;;;2.43;;
479;SDS011;226;48.606;9.096;2023-06-04T08:41:20;9.50;;;3.08;;
479;SDS011;226;48.606;9.096;2023-06-04T08:43:54;6.03;;;2.90;;
479;SDS011;226;48.606;9.096;2023-06-04T08:46:27;5.37;;;2.83;;
479;SDS011;226;48.606;9.096;2023-06-04T08:48:59;2.63;;;2.40;;
479;SDS011;226;48.606;9.096;2023-06-04T08:51:29;2.90;;;2.50;;
479;SDS011;226;48.606;9.096;2023-06-04T08:54:00;9.13;;;2.87;;
479;SDS011;226;48.606;9.096;2023-06-04T08:56:29;5.90;;;2.80;;
479;SDS011;226;48.606;9.096;2023-06-04T08:59:00;3.23;;;2.73;;
479;SDS011;226;48.606;9.096;2023-06-04T09:01:30;11.33;;;2.73;;
479;SDS011;226;48.606;9.096;2023-06-04T09:04:03;5.83;;;2.77;;
479;SDS011;226;48.606;9.096;2023-06-04T09:06:35;3.80;;;2.63;;
479;SDS011;226;48.606;9.096;2023-06-04T09:09:04;3.40;;;2.70;;
479;SDS011;226;48.606;9.096;2023-06-04T09:11:38;6.97;;;2.80;;
479;SDS011;226;48.606;9.096;2023-06-04T09:14:09;3.50;;;2.73;;
479;SDS011;226;48.606;9.096;2023-06-04T09:16:43;3.90;;;2.97;;
479;SDS011;226;48.606;9.096;2023-06-04T09:19:13;4.83;;;2.70;;
479;SDS011;226;48.606;9.096;2023-06-04T09:21:48;5.67;;;3.30;;
479;SDS011;226;48.606;9.096;2023-06-04T09:24:17;4.90;;;2.43;;
479;SDS011;226;48.606;9.096;2023-06-04T09:26:47;6.97;;;3.27;;
479;SDS011;226;48.606;9.096;2023-06-04T09:29:16;4.10;;;2.80;;
479;SDS011;226;48.606;9.096;2023-06-04T09:31:45;7.20;;;3.23;;
479;SDS011;226;48.606;9.096;2023-06-04T09:34:15;4.13;;;2.83;;
479;SDS011;226;48.606;9.096;2023-06-04T09:36:53;3.73;;;2.60;;
479;SDS011;226;48.606;9.096;2023-06-04T09:39:22;4.20;;;3.13;;
479;SDS011;226;48.606;9.096;2023-06-04T09:41:57;11.73;;;2.77;;
479;SDS011;226;48.606;9.096;2023-06-04T09:44:26;5.80;;;2.43;;
479;SDS011;226;48.606;9.096;2023-06-04T09:46:55;3.13;;;2.57;;
479;SDS011;226;48.606;9.096;2023-06-04T09:49:25;2.93;;;2.50;;
479;SDS011;226;48.606;9.096;2023-06-04T09:51:53;2.63;;;2.30;;
479;SDS011;226;48.606;9.096;2023-06-04T09:54:21;3.50;;;3.20;;
479;SDS011;226;48.606;9.096;2023-06-04T09:56:49;2.83;;;2.63;;
479;SDS011;226;48.606;9.096;2023-06-04T09:59:17;4.53;;;3.33;;
479;SDS011;226;48.606;9.096;2023-06-04T10:01:46;6.93;;;2.87;;
479;SDS011;226;48.606;9.096;2023-06-04T10:04:15;4.33;;;2.80;;
479;SDS011;226;48.606;9.096;2023-06-04T10:06:44;11.87;;;2.90;;
479;SDS011;226;48.606;9.096;2023-06-04T10:09:13;4.93;;;3.17;;
479;SDS011;226;48.606;9.096;2023-06-04T10:11:44;3.47;;;2.80;;
479;SDS011;226;48.606;9.096;2023-06-04T10:14:19;3.97;;;2.90;;
479;SDS011;226;48.606;9.096;2023-06-04T10:16:50;5.87;;;3.30;;
479;SDS011;226;48.606;9.096;2023-06-04T10:19:18;6.10;;;3.63;;
479;SDS011;226;48.606;9.096;2023-06-04T10:21:48;5.10;;;3.20;;
479;SDS011;226;48.606;9.096;2023-06-04T10:24:17;5.30;;;3.03;;
479;SDS011;226;48.606;9.096;2023-06-04T10:26:47;4.60;;;3.30;;
479;SDS011;226;48.606;9.096;2023-06-04T10:29:16;6.47;;;3.70;;
479;SDS011;226;48.606;9.096;2023-06-04T10:31:45;3.77;;;3.20;;
479;SDS011;226;48.606;9.096;2023-06-04T10:34:13;6.43;;;3.93;;
479;SDS011;226;48.606;9.096;2023-06-04T10:36:43;6.73;;;3.50;;
479;SDS011;226;48.606;9.096;2023-06-04T10:39:13;15.40;;;4.47;;
479;SDS011;226;48.606;9.096;2023-06-04T10:41:57;4.83;;;3.23;;
479;SDS011;226;48.606;9.096;2023-06-04T10:44:26;5.77;;;3.57;;
479;SDS011;226;48.606;9.096;2023-06-04T10:46:54;5.07;;;4.07;;
479;SDS011;226;48.606;9.096;2023-06-04T10:49:26;3.90;;;3.40;;
479;SDS011;226;48.606;9.096;2023-06-04T10:51:55;5.87;;;3.73;;
479;SDS011;226;48.606;9.096;2023-06-04T10:54:25;3.87;;;3.27;;
479;SDS011;226;48.606;9.096;2023-06-04T10:56:53;6.83;;;4.10;;
479;SDS011;226;48.606;9.096;2023-06-04T10:59:22;9.70;;;3.80;;
479;SDS011;226;48.606;9.096;2023-06-04T11:01:51;6.30;;;3.53;;
479;SDS011;226;48.606;9.096;2023-06-04T11:04:31;6.17;;;3.93;;
479;SDS011;226;48.606;9.096;2023-06-04T11:07:00;2.37;;;2.17;;
479;SDS011;226;48.606;9.096;2023-06-04T11:09:31;4.03;;;3.13;;
479;SDS011;226;48.606;9.096;2023-06-04T11:12:02;3.67;;;3.30;;
479;SDS011;226;48.606;9.096;2023-06-04T11:14:32;9.83;;;3.47;;
479;SDS011;226;48.606;9.096;2023-06-04T11:17:08;4.97;;;3.53;;
479;SDS011;226;48.606;9.096;2023-06-04T11:19:37;4.97;;;3.57;;
479;SDS011;226;48.606;9.096;2023-06-04T11:22:06;4.30;;;3.90;;
479;SDS011;226;48.606;9.096;2023-06-04T11:24:39;6.90;;;3.97;;
479;SDS011;226;48.606;9.096;2023-06-04T11:27:08;7.37;;;4.77;;
479;SDS011;226;48.606;9.096;2023-06-04T11:29:53;4.20;;;3.80;;
479;SDS011;226;48.606;9.096;2023-06-04T11:32:22;4.93;;;3.37;;
479;SDS011;226;48.606;9.096;2023-06-04T11:34:51;10.50;;;4.17;;
479;SDS011;226;48.606;9.096;2023-06-04T11:37:29;5.67;;;4.20;;
479;SDS011;226;48.606;9.096;2023-06-04T11:40:00;6.53;;;4.30;;
479;SDS011;226;48.606;9.096;2023-06-04T11:42:31;5.03;;;3.63;;
479;SDS011;226;48.606;9.096;2023-06-04T11:45:02;4.13;;;3.57;;
479;SDS011;226;48.606;9.096;2023-06-04T11:47:31;6.73;;;3.60;;
479;SDS011;226;48.606;9.096;2023-06-04T11:49:59;6.53;;;4.00;;
479;SDS011;226;48.606;9.096;2023-06-04T11:52:27;5.37;;;4.20;;
479;SDS011;226;48.606;9.096;2023-06-04T11:54:55;6.70;;;3.53;;
479;SDS011;226;48.606;9.096;2023-06-04T11:57:25;6.27;;;3.90;;
479;SDS011;226;48.606;9.096;2023-06-04T11:59:53;5.07;;;3.83;;
479;SDS011;226;48.606;9.096;2023-06-04T12:02:22;4.30;;;3.60;;
479;SDS011;226;48.606;9.096;2023-06-04T12:04:51;14.23;;;3.37;;
479;SDS011;226;48.606;9.096;2023-06-04T12:07:19;4.43;;;3.57;;
479;SDS011;226;48.606;9.096;2023-06-04T12:09:50;6.00;;;3.73;;
479;SDS011;226;48.606;9.096;2023-06-04T12:12:21;5.57;;;4.10;;
479;SDS011;226;48.606;9.096;2023-06-04T12:14:58;5.00;;;3.47;;
479;SDS011;226;48.606;9.096;2023-06-04T12:17:27;4.37;;;3.00;;
479;SDS011;226;48.606;9.096;2023-06-04T12:19:55;4.93;;;3.80;;
479;SDS011;226;48.606;9.096;2023-06-04T12:22:25;6.97;;;3.83;;
479;SDS011;226;48.606;9.096;2023-06-04T12:24:54;6.57;;;4.23;;
479;SDS011;226;48.606;9.096;2023-06-04T12:27:24;6.63;;;3.83;;
479;SDS011;226;48.606;9.096;2023-06-04T12:29:56;4.60;;;3.53;;
479;SDS011;226;48.606;9.096;2023-06-04T12:32:27;8.63;;;4.10;;
479;SDS011;226;48.606;9.096;2023-06-04T12:34:55;6.47;;;4.00;;
479;SDS011;226;48.606;9.096;2023-06-04T12:37:24;3.67;;;3.40;;
479;SDS011;226;48.606;9.096;2023-06-04T12:39:53;12.10;;;4.43;;
479;SDS011;226;48.606;9.096;2023-06-04T12:42:22;7.10;;;4.00;;
479;SDS011;226;48.606;9.096;2023-06-04T12:44:50;4.17;;;3.57;;
479;SDS011;226;48.606;9.096;2023-06-04T12:47:19;7.20;;;4.10;;
479;SDS011;226;48.606;9.096;2023-06-04T12:49:48;5.00;;;3.37;;
479;SDS011;226;48.606;9.096;2023-06-04T12:52:16;4.30;;;3.33;;
479;SDS011;226;48.606;9.096;2023-06-04T12:54:44;3.80;;;3.13;;
479;SDS011;226;48.606;9.096;2023-06-04T12:57:12;4.37;;;3.20;;
479;SDS011;226;48.606;9.096;2023-06-04T12:59:40;4.73;;;3.37;;
479;SDS011;226;48.606;9.096;2023-06-04T13:02:08;3.43;;;2.77;;
479;SDS011;226;48.606;9.096;2023-06-04T13:04:38;5.60;;;3.33;;
479;SDS011;226;48.606;9.096;2023-06-04T13:07:07;4.40;;;3.17;;
479;SDS011;226;48.606;9.096;2023-06-04T13:09:35;5.60;;;3.60;;
479;SDS011;226;48.606;9.096;2023-06-04T13:12:04;7.87;;;3.10;;
479;SDS011;226;48.606;9.096;2023-06-04T13:14:35;7.90;;;3.40;;
479;SDS011;226;48.606;9.096;2023-06-04T13:17:03;4.03;;;3.23;;
479;SDS011;226;48.606;9.096;2023-06-04T13:19:48;7.33;;;3.80;;
479;SDS011;226;48.606;9.096;2023-06-04T13:22:18;5.07;;;3.20;;
479;SDS011;226;48.606;9.096;2023-06-04T13:24:46;3.93;;;2.57;;
479;SDS011;226;48.606;9.096;2023-06-04T13:27:14;4.87;;;2.30;;
479;SDS011;226;48.606;9.096;2023-06-04T13:29:42;2.90;;;2.43;;
479;SDS011;226;48.606;9.096;2023-06-04T13:32:10;4.87;;;3.07;;
479;SDS011;226;48.606;9.096;2023-06-04T13:34:39;3.80;;;3.10;;
479;SDS011;226;48.606;9.096;2023-06-04T13:37:08;4.40;;;3.37;;
479;SDS011;226;48.606;9.096;2023-06-04T13:39:38;4.27;;;2.60;;
479;SDS011;226;48.606;9.096;2023-06-04T13:42:06;4.40;;;2.93;;
479;SDS011;226;48.606;9.096;2023-06-04T13:44:34;10.30;;;2.90;;
479;SDS011;226;48.606;9.096;2023-06-04T13:47:03;3.50;;;2.73;;
479;SDS011;226;48.606;9.096;2023-06-04T13:49:32;3.37;;;2.40;;
479;SDS011;226;48.606;9.096;2023-06-04T13:52:00;5.83;;;3.00;;
479;SDS011;226;48.606;9.096;2023-06-04T13:54:30;3.17;;;2.73;;
479;SDS011;226;48.606;9.096;2023-06-04T13:57:01;4.27;;;3.10;;
479;SDS011;226;48.606;9.096;2023-06-04T13:59:29;6.73;;;3.47;;
479;SDS011;226;48.606;9.096;2023-06-04T14:01:58;5.60;;;3.20;;
479;SDS011;226;48.606;9.096;2023-06-04T14:04:27;5.47;;;3.40;;
479;SDS011;226;48.606;9.096;2023-06-04T14:06:55;5.63;;;3.47;;
479;SDS011;226;48.606;9.096;2023-06-04T14:09:23;3.30;;;2.70;;
479;SDS011;226;48.606;9.096;2023-06-04T14:11:53;6.20;;;2.97;;
479;SDS011;226;48.606;9.096;2023-06-04T14:14:21;4.83;;;2.80;;
479;SDS011;226;48.606;9.096;2023-06-04T14:16:49;3.17;;;2.87;;
479;SDS011;226;48.606;9.096;2023-06-04T14:19:24;3.10;;;2.77;;
479;SDS011;226;48.606;9.096;2023-06-04T14:21:52;5.40;;;3.30;;
479;SDS011;226;48.606;9.096;2023-06-04T14:24:20;6.00;;;3.43;;
479;SDS011;226;48.606;9.096;2023-06-04T14:26:49;5.80;;;3.33;;
479;SDS011;226;48.606;9.096;2023-06-04T14:29:18;4.93;;;3.50;;
479;SDS011;226;48.606;9.096;2023-06-04T14:31:46;5.17;;;3.30;;
479;SDS011;226;48.606;9.096;2023-06-04T14:34:14;4.00;;;3.07;;
479;SDS011;226;48.606;9.096;2023-06-04T14:36:43;6.00;;;2.80;;
479;SDS011;226;48.606;9.096;2023-06-04T14:39:11;6.90;;;3.70;;
479;SDS011;226;48.606;9.096;2023-06-04T14:41:39;4.47;;;3.50;;
479;SDS011;226;48.606;9.096;2023-06-04T14:44:07;5.73;;;3.10;;
479;SDS011;226;48.606;9.096;2023-06-04T14:46:40;3.13;;;2.50;;
479;SDS011;226;48.606;9.096;2023-06-04T14:49:09;3.50;;;2.40;;
479;SDS011;226;48.606;9.096;2023-06-04T14:51:37;4.70;;;3.43;;
479;SDS011;226;48.606;9.096;2023-06-04T14:54:07;3.07;;;2.70;;
479;SDS011;226;48.606;9.096;2023-06-04T14:56:35;3.27;;;2.60;;
479;SDS011;226;48.606;9.096;2023-06-04T14:59:03;5.27;;;3.10;;
479;SDS011;226;48.606;9.096;2023-06-04T15:01:35;4.70;;;3.00;;
479;SDS011;226;48.606;9.096;2023-06-04T15:04:05;4.57;;;3.30;;
479;SDS011;226;48.606;9.096;2023-06-04T15:06:34;3.80;;;2.90;;
479;SDS011;226;48.606;9.096;2023-06-04T15:09:02;6.33;;;3.30;;
479;SDS011;226;48.606;9.096;2023-06-04T15:11:31;3.83;;;2.83;;
479;SDS011;226;48.606;9.096;2023-06-04T15:13:59;5.50;;;3.37;;
479;SDS011;226;48.606;9.096;2023-06-04T15:16:28;6.37;;;3.73;;
479;SDS011;226;48.606;9.096;2023-06-04T15:18:56;3.90;;;2.60;;
479;SDS011;226;48.606;9.096;2023-06-04T15:21:26;5.73;;;2.90;;
479;SDS011;226;48.606;9.096;2023-06-04T15:23:54;5.00;;;2.40;;
479;SDS011;226;48.606;9.096;2023-06-04T15:26:23;2.57;;;2.30;;
479;SDS011;226;48.606;9.096;2023-06-04T15:28:53;4.50;;;2.90;;
479;SDS011;226;48.606;9.096;2023-06-04T15:31:22;4.30;;;2.40;;
479;SDS011;226;48.606;9.096;2023-06-04T15:33:51;2.60;;;2.33;;
479;SDS011;226;48.606;9.096;2023-06-04T15:36:19;2.97;;;2.53;;
479;SDS011;226;48.606;9.096;2023-06-04T15:38:49;3.43;;;2.97;;
479;SDS011;226;48.606;9.096;2023-06-04T15:41:17;2.80;;;2.40;;
479;SDS011;226;48.606;9.096;2023-06-04T15:43:47;3.13;;;2.63;;
479;SDS011;226;48.606;9.096;2023-06-04T15:46:16;3.63;;;2.60;;
479;SDS011;226;48.606;9.096;2023-06-04T15:48:44;3.60;;;2.80;;
479;SDS011;226;48.606;9.096;2023-06-04T15:51:13;3.27;;;2.67;;
479;SDS011;226;48.606;9.096;2023-06-04T15:53:41;4.60;;;2.40;;
479;SDS011;226;48.606;9.096;2023-06-04T15:56:11;4.37;;;2.87;;